createdAt,value
2023-05-05T00:03:58.725Z,9.70
2023-05-05T00:09:00.346Z,9.20
2023-05-05T00:14:01.824Z,10.07
2023-05-05T00:19:03.405Z,7.65
2023-05-05T00:24:05.386Z,10.65
2023-05-05T00:29:06.883Z,8.60
2023-05-05T00:34:08.357Z,11.73
2023-05-05T00:39:09.915Z,9.00
2023-05-05T00:44:11.636Z,6.15
2023-05-05T00:49:13.135Z,9.23
2023-05-05T00:54:14.692Z,9.05
2023-05-05T00:59:16.411Z,6.80
2023-05-05T01:04:17.971Z,6.20
2023-05-05T01:10:04.230Z,12.38
2023-05-05T01:15:34.821Z,10.75
2023-05-05T01:21:01.565Z,11.40
2023-05-05T01:26:46.739Z,16.13
2023-05-05T01:31:52.267Z,14.45
2023-05-05T01:37:18.290Z,15.10
2023-05-05T01:42:22.389Z,15.85
2023-05-05T01:47:24.809Z,17.13
2023-05-05T01:52:28.067Z,20.75
2023-05-05T01:57:31.399Z,14.20
2023-05-05T02:02:35.037Z,18.83
2023-05-05T02:07:36.883Z,16.45
2023-05-05T02:12:41.101Z,18.00
2023-05-05T02:17:43.648Z,15.30
2023-05-05T02:22:45.704Z,18.13
2023-05-05T02:27:49.245Z,14.63
2023-05-05T02:32:56.100Z,21.00
2023-05-05T02:38:05.448Z,16.88
2023-05-05T02:43:10.033Z,15.02
2023-05-05T02:48:13.195Z,15.48
2023-05-05T02:53:14.930Z,20.27
2023-05-05T02:58:30.920Z,17.58
2023-05-05T03:03:40.888Z,26.95
2023-05-05T03:09:08.552Z,16.92
2023-05-05T03:14:17.269Z,16.35
2023-05-05T03:19:20.096Z,18.08
2023-05-05T03:24:21.778Z,16.58
2023-05-05T03:29:23.347Z,16.27
2023-05-05T03:34:24.836Z,19.15
2023-05-05T03:39:26.338Z,16.02
2023-05-05T03:44:28.001Z,16.45
2023-05-05T03:49:29.512Z,13.18
2023-05-05T03:54:31.341Z,12.68
2023-05-05T03:59:35.621Z,13.73
2023-05-05T04:04:37.181Z,14.38
2023-05-05T04:09:44.628Z,13.85
2023-05-05T04:14:46.043Z,15.55
2023-05-05T04:19:47.517Z,15.05
2023-05-05T04:24:49.076Z,11.35
2023-05-05T04:29:50.602Z,10.77
2023-05-05T04:34:52.088Z,15.48
2023-05-05T04:39:53.492Z,7.85
2023-05-05T04:44:55.013Z,9.40
2023-05-05T04:49:56.467Z,13.70
2023-05-05T04:54:58.093Z,10.55
2023-05-05T05:00:01.458Z,10.48
2023-05-05T05:05:03.324Z,9.43
2023-05-05T05:10:05.441Z,9.82
2023-05-05T05:15:07.677Z,9.52
2023-05-05T05:20:10.018Z,12.63
2023-05-05T05:25:11.717Z,10.68
2023-05-05T05:30:13.483Z,13.18
2023-05-05T05:35:14.995Z,8.82
2023-05-05T05:40:16.652Z,9.85
2023-05-05T05:45:18.180Z,11.70
2023-05-05T05:50:20.463Z,12.05
2023-05-05T05:55:21.983Z,12.18
2023-05-05T06:00:23.629Z,15.30
2023-05-05T06:05:25.158Z,14.07
2023-05-05T06:10:28.234Z,12.82
2023-05-05T06:15:29.856Z,14.30
2023-05-05T06:20:31.593Z,12.80
2023-05-05T06:25:33.344Z,13.35
2023-05-05T06:30:34.906Z,13.50
2023-05-05T06:35:36.365Z,12.70
2023-05-05T06:40:37.891Z,16.77
2023-05-05T06:45:39.323Z,12.75
2023-05-05T06:50:40.959Z,17.70
2023-05-05T06:55:47.218Z,19.23
2023-05-05T07:00:48.660Z,12.50
2023-05-05T07:05:50.109Z,11.82
2023-05-05T07:10:51.593Z,15.30
2023-05-05T07:15:53.461Z,11.75
2023-05-05T07:20:54.923Z,13.02
2023-05-05T07:25:56.646Z,16.10
2023-05-05T07:30:58.436Z,10.25
2023-05-05T07:36:00.186Z,8.57
2023-05-05T07:41:01.692Z,9.80
2023-05-05T07:46:03.781Z,9.90
2023-05-05T07:51:05.327Z,7.82
2023-05-05T07:56:08.707Z,10.20
2023-05-05T08:01:11.253Z,10.02
2023-05-05T08:06:16.425Z,7.65
2023-05-05T08:11:17.861Z,13.10
2023-05-05T08:16:19.385Z,9.93
2023-05-05T08:21:20.982Z,8.68
2023-05-05T08:26:22.892Z,8.88
2023-05-05T08:31:24.406Z,11.07
2023-05-05T08:36:27.259Z,6.28
2023-05-05T08:41:28.868Z,8.10
2023-05-05T08:46:31.186Z,5.78
2023-05-05T08:51:45.397Z,8.13
2023-05-05T08:56:49.833Z,8.48
2023-05-05T09:01:53.154Z,2.92
2023-05-05T09:06:58.209Z,4.53
2023-05-05T09:12:00.212Z,4.53
2023-05-05T09:17:03.221Z,4.88
2023-05-05T09:22:04.842Z,5.75
2023-05-05T09:27:22.115Z,3.75
2023-05-05T09:32:25.103Z,3.53
2023-05-05T09:37:31.439Z,2.58
2023-05-05T09:42:32.881Z,4.43
2023-05-05T09:47:35.755Z,3.65
2023-05-05T09:52:37.449Z,5.65
2023-05-05T09:57:39.012Z,6.38
2023-05-05T10:02:40.745Z,4.80
2023-05-05T10:07:47.150Z,4.95
2023-05-05T10:12:50.159Z,4.78
2023-05-05T10:18:06.138Z,5.75
2023-05-05T10:23:15.301Z,3.47
2023-05-05T10:28:28.537Z,5.75
2023-05-05T10:33:36.362Z,7.40
2023-05-05T10:38:38.377Z,5.22
2023-05-05T10:43:39.875Z,6.95
2023-05-05T10:48:57.442Z,6.53
2023-05-05T10:54:06.981Z,5.38
2023-05-05T10:59:39.213Z,7.68
2023-05-05T11:04:41.008Z,4.60
2023-05-05T11:10:02.736Z,7.13
2023-05-05T11:15:26.217Z,6.65
2023-05-05T11:20:40.029Z,4.80
2023-05-05T11:25:45.297Z,5.57
2023-05-05T11:30:59.022Z,0.93
2023-05-05T11:36:07.194Z,0.93
2023-05-05T11:41:34.938Z,1.55
2023-05-05T11:46:37.045Z,3.08
2023-05-05T11:51:39.002Z,2.10
2023-05-05T11:56:51.127Z,2.78
2023-05-05T12:01:52.809Z,3.25
2023-05-05T12:06:55.450Z,1.42
2023-05-05T12:11:58.818Z,4.07
2023-05-05T12:17:07.059Z,2.50
2023-05-05T12:22:08.596Z,1.25
2023-05-05T12:27:11.638Z,0.73
2023-05-05T12:32:28.078Z,1.17
2023-05-05T12:37:29.908Z,1.38
2023-05-05T12:42:31.834Z,1.10
2023-05-05T12:47:33.460Z,3.53
2023-05-05T12:52:45.321Z,2.33
2023-05-05T12:58:04.734Z,3.08
2023-05-05T13:03:06.651Z,1.30
2023-05-05T13:08:08.200Z,0.63
2023-05-05T13:13:09.878Z,1.45
2023-05-05T13:18:11.688Z,0.57
2023-05-05T13:23:13.285Z,1.90
2023-05-05T13:28:14.781Z,1.23
2023-05-05T13:33:16.391Z,1.65
2023-05-05T13:38:17.894Z,4.90
2023-05-05T13:43:20.051Z,1.58
2023-05-05T13:48:22.365Z,0.50
2023-05-05T13:53:23.865Z,1.15
2023-05-05T13:58:25.515Z,1.92
2023-05-05T14:03:27.057Z,1.40
2023-05-05T14:08:28.668Z,1.35
2023-05-05T14:13:30.195Z,1.40
2023-05-05T14:18:31.761Z,1.30
2023-05-05T14:23:33.227Z,2.40
2023-05-05T14:28:34.819Z,2.20
2023-05-05T14:33:36.426Z,1.92
2023-05-05T14:38:37.997Z,1.23
2023-05-05T14:43:39.423Z,1.70
2023-05-05T14:48:41.090Z,2.45
2023-05-05T14:53:42.576Z,1.88
2023-05-05T14:58:44.107Z,2.65
2023-05-05T15:03:47.118Z,3.35
2023-05-05T15:08:48.681Z,2.08
2023-05-05T15:13:51.458Z,3.20
2023-05-05T15:18:53.136Z,3.58
2023-05-05T15:23:57.586Z,1.75
2023-05-05T15:28:59.120Z,1.13
2023-05-05T15:34:00.624Z,0.70
2023-05-05T15:39:02.225Z,1.00
2023-05-05T15:44:05.173Z,4.65
2023-05-05T15:49:07.218Z,2.17
2023-05-05T15:54:08.693Z,1.90
2023-05-05T15:59:10.301Z,0.90
2023-05-05T16:04:12.128Z,2.75
2023-05-05T16:09:13.652Z,0.70
2023-05-05T16:14:15.124Z,1.20
2023-05-05T16:19:16.607Z,1.20
2023-05-05T16:24:18.228Z,2.97
2023-05-05T16:29:19.701Z,2.33
2023-05-05T16:34:21.480Z,1.05
2023-05-05T16:39:22.924Z,3.30
2023-05-05T16:44:24.731Z,0.73
2023-05-05T16:49:26.247Z,1.38
2023-05-05T16:54:27.761Z,3.40
2023-05-05T16:59:31.395Z,0.82
2023-05-05T17:04:33.125Z,2.67
2023-05-05T17:09:34.741Z,3.33
2023-05-05T17:14:36.327Z,0.80
2023-05-05T17:19:37.757Z,6.45
2023-05-05T17:24:39.192Z,0.70
2023-05-05T17:29:41.345Z,0.70
2023-05-05T17:34:42.929Z,1.52
2023-05-05T17:39:44.456Z,1.10
2023-05-05T17:44:50.127Z,1.65
2023-05-05T17:49:53.845Z,1.13
2023-05-05T17:54:55.397Z,2.60
2023-05-05T17:59:56.834Z,1.80
2023-05-05T18:04:58.337Z,1.35
2023-05-05T18:09:59.856Z,0.80
2023-05-05T18:15:01.673Z,2.72
2023-05-05T18:20:04.206Z,1.42
2023-05-05T18:25:07.940Z,2.50
2023-05-05T18:30:18.541Z,1.17
2023-05-05T18:35:20.103Z,1.65
2023-05-05T18:40:22.164Z,2.45
2023-05-05T18:45:24.589Z,2.67
2023-05-05T18:50:26.224Z,2.33
2023-05-05T18:55:27.928Z,2.20
2023-05-05T19:00:29.534Z,1.67
2023-05-05T19:05:34.942Z,2.42
2023-05-05T19:10:36.965Z,2.42
2023-05-05T19:15:38.702Z,1.52
2023-05-05T19:20:43.027Z,2.72
2023-05-05T19:25:44.781Z,2.08
2023-05-05T19:30:48.812Z,2.15
2023-05-05T19:35:51.041Z,3.75
2023-05-05T19:40:54.107Z,3.83
2023-05-05T19:45:55.685Z,4.30
2023-05-05T19:50:57.573Z,4.20
2023-05-05T19:56:01.663Z,5.35
2023-05-05T20:01:03.186Z,3.83
2023-05-05T20:06:04.761Z,2.42
2023-05-05T20:11:09.082Z,2.05
2023-05-05T20:16:10.876Z,2.75
2023-05-05T20:21:12.494Z,6.45
2023-05-05T20:26:14.044Z,3.88
2023-05-05T20:31:15.614Z,6.13
2023-05-05T20:36:17.878Z,11.32
2023-05-05T20:41:19.293Z,12.05
2023-05-05T20:46:21.174Z,19.90
2023-05-05T20:51:22.699Z,27.10
2023-05-05T20:56:24.387Z,27.58
2023-05-05T21:01:26.184Z,7.22
2023-05-05T21:06:27.836Z,3.17
2023-05-05T21:11:29.489Z,3.03
2023-05-05T21:16:31.079Z,3.47
2023-05-05T21:21:32.570Z,10.73
2023-05-05T21:26:34.282Z,4.32
2023-05-05T21:31:35.796Z,2.25
2023-05-05T21:36:38.648Z,3.10
2023-05-05T21:41:40.158Z,2.03
2023-05-05T21:46:42.311Z,2.08
2023-05-05T21:51:45.099Z,2.20
2023-05-05T21:56:46.476Z,1.92
2023-05-05T22:01:51.151Z,3.13
2023-05-05T22:06:52.616Z,2.78
2023-05-05T22:11:54.166Z,4.68
2023-05-05T22:16:55.884Z,7.25
2023-05-05T22:21:58.652Z,3.45
2023-05-05T22:27:00.210Z,2.25
2023-05-05T22:32:01.772Z,1.98
2023-05-05T22:37:03.235Z,2.38
2023-05-05T22:42:04.760Z,5.07
2023-05-05T22:47:07.009Z,3.70
2023-05-05T22:52:08.652Z,2.92
2023-05-05T22:57:10.072Z,3.92
2023-05-05T23:02:11.663Z,4.03
2023-05-05T23:07:13.647Z,6.47
2023-05-05T23:12:15.093Z,5.10
2023-05-05T23:17:16.948Z,4.38
2023-05-05T23:22:18.692Z,3.88
2023-05-05T23:27:20.132Z,3.17
2023-05-05T23:32:21.887Z,3.72
2023-05-05T23:37:24.393Z,4.15
2023-05-05T23:42:26.128Z,6.68
2023-05-05T23:47:27.569Z,4.60
2023-05-05T23:52:29.312Z,4.50
2023-05-05T23:57:30.727Z,3.65
